createdAt,value
2022-09-20T00:01:23.255Z,14.34
2022-09-20T00:03:52.724Z,14.34
2022-09-20T00:06:28.428Z,14.37
2022-09-20T00:08:56.637Z,14.30
2022-09-20T00:11:29.089Z,14.34
2022-09-20T00:13:57.153Z,14.31
2022-09-20T00:16:26.760Z,14.32
2022-09-20T00:18:55.590Z,14.32
2022-09-20T00:21:24.845Z,14.33
2022-09-20T00:23:52.653Z,14.34
2022-09-20T00:26:19.676Z,14.34
2022-09-20T00:28:47.193Z,14.35
2022-09-20T00:31:15.090Z,14.34
2022-09-20T00:34:00.207Z,14.35
2022-09-20T00:36:29.657Z,14.37
2022-09-20T00:39:01.187Z,14.40
2022-09-20T00:41:30.572Z,14.36
2022-09-20T00:43:57.739Z,14.33
2022-09-20T00:46:39.895Z,14.42
2022-09-20T00:49:14.853Z,14.35
2022-09-20T00:51:45.630Z,14.33
2022-09-20T00:54:19.419Z,14.30
2022-09-20T00:56:46.929Z,14.29
2022-09-20T00:59:27.706Z,14.60
2022-09-20T01:02:00.973Z,14.40
2022-09-20T01:04:28.934Z,14.37
2022-09-20T01:07:05.933Z,14.42
2022-09-20T01:09:32.430Z,14.38
2022-09-20T01:12:03.966Z,14.42
2022-09-20T01:14:30.889Z,14.38
2022-09-20T01:17:02.626Z,14.39
2022-09-20T01:19:47.760Z,14.42
2022-09-20T01:22:46.574Z,14.49
2022-09-20T01:25:44.039Z,14.43
2022-09-20T01:28:10.571Z,14.35
2022-09-20T01:30:43.867Z,14.36
2022-09-20T01:33:21.819Z,14.37
2022-09-20T01:35:51.389Z,14.29
2022-09-20T01:38:35.174Z,14.36
2022-09-20T01:41:12.514Z,14.31
2022-09-20T01:44:06.967Z,14.37
2022-09-20T01:46:35.894Z,14.24
2022-09-20T01:49:25.790Z,14.33
2022-09-20T01:52:29.995Z,14.36
2022-09-20T01:55:27.243Z,14.32
2022-09-20T01:58:21.638Z,14.28
2022-09-20T02:01:24.301Z,14.33
2022-09-20T02:04:02.723Z,14.25
2022-09-20T02:06:50.675Z,14.21
2022-09-20T02:09:26.026Z,14.28
2022-09-20T02:12:14.447Z,14.34
2022-09-20T02:15:05.562Z,14.28
2022-09-20T02:17:32.119Z,14.22
2022-09-20T02:19:58.505Z,14.24
2022-09-20T02:22:36.782Z,14.32
2022-09-20T02:25:21.685Z,14.33
2022-09-20T02:28:03.327Z,14.33
2022-09-20T02:30:44.756Z,14.27
2022-09-20T02:33:18.192Z,14.35
2022-09-20T02:36:10.526Z,14.42
2022-09-20T02:38:37.678Z,14.32
2022-09-20T02:41:51.199Z,14.51
2022-09-20T02:44:33.753Z,14.40
2022-09-20T02:47:10.073Z,14.37
2022-09-20T02:49:43.148Z,14.45
2022-09-20T02:52:36.583Z,14.51
2022-09-20T02:55:35.797Z,14.52
2022-09-20T02:58:13.952Z,14.40
2022-09-20T03:00:53.703Z,14.45
2022-09-20T03:03:36.505Z,14.40
2022-09-20T03:06:23.021Z,14.53
2022-09-20T03:09:01.132Z,14.45
2022-09-20T03:11:47.317Z,14.45
2022-09-20T03:14:31.053Z,14.46
2022-09-20T03:17:12.589Z,14.40
2022-09-20T03:20:06.329Z,14.49
2022-09-20T03:22:47.757Z,14.44
2022-09-20T03:25:39.147Z,14.46
2022-09-20T03:28:33.260Z,14.52
2022-09-20T03:31:05.681Z,14.43
2022-09-20T03:33:41.149Z,14.45
2022-09-20T03:36:34.706Z,14.49
2022-09-20T03:39:07.169Z,14.38
2022-09-20T03:41:52.338Z,14.39
2022-09-20T03:44:36.737Z,14.44
2022-09-20T03:47:22.374Z,14.43
2022-09-20T03:50:19.229Z,14.48
2022-09-20T03:52:54.458Z,14.42
2022-09-20T03:55:42.418Z,14.49
2022-09-20T03:58:40.478Z,14.47
2022-09-20T04:01:16.405Z,14.42
2022-09-20T04:03:56.176Z,14.52
2022-09-20T04:06:41.770Z,14.62
2022-09-20T04:09:47.524Z,14.70
2022-09-20T04:12:30.837Z,14.80
2022-09-20T04:15:03.641Z,14.85
2022-09-20T04:17:45.441Z,14.99
2022-09-20T04:20:21.900Z,15.09
2022-09-20T04:22:53.458Z,15.18
2022-09-20T04:25:44.266Z,15.38
2022-09-20T04:28:35.811Z,15.49
2022-09-20T04:31:14.727Z,15.54
2022-09-20T04:33:45.273Z,15.62
2022-09-20T04:36:31.852Z,15.72
2022-09-20T04:39:19.302Z,15.90
2022-09-20T04:42:15.475Z,16.02
2022-09-20T04:45:09.069Z,16.00
2022-09-20T04:48:13.374Z,16.10
2022-09-20T04:51:10.929Z,16.03
2022-09-20T04:54:15.049Z,16.04
2022-09-20T04:57:20.582Z,15.97
2022-09-20T05:00:12.875Z,15.87
2022-09-20T05:03:04.135Z,15.72
2022-09-20T05:05:35.854Z,15.58
2022-09-20T05:08:24.547Z,15.65
2022-09-20T05:11:06.832Z,15.50
2022-09-20T05:14:19.550Z,15.53
2022-09-20T05:17:14.860Z,15.42
2022-09-20T05:20:10.626Z,15.35
2022-09-20T05:23:15.375Z,15.28
2022-09-20T05:26:03.440Z,15.14
2022-09-20T05:28:45.328Z,15.15
2022-09-20T05:31:30.987Z,15.09
2022-09-20T05:34:32.305Z,15.09
2022-09-20T05:37:14.413Z,14.96
2022-09-20T05:39:52.388Z,14.95
2022-09-20T05:42:27.637Z,14.87
2022-09-20T05:45:15.759Z,14.85
2022-09-20T05:48:20.734Z,14.92
2022-09-20T05:51:01.886Z,14.84
2022-09-20T05:53:56.507Z,14.84
2022-09-20T05:57:00.671Z,14.89
2022-09-20T05:59:47.724Z,14.79
2022-09-20T06:02:34.960Z,14.88
2022-09-20T06:05:10.745Z,14.76
2022-09-20T06:07:52.563Z,14.81
2022-09-20T06:10:41.737Z,14.85
2022-09-20T06:13:20.742Z,14.81
2022-09-20T06:15:58.137Z,14.74
2022-09-20T06:18:32.261Z,14.78
2022-09-20T06:21:25.522Z,14.87
2022-09-20T06:23:58.481Z,14.79
2022-09-20T06:26:29.394Z,14.76
2022-09-20T06:29:03.459Z,14.78
2022-09-20T06:31:29.966Z,14.73
2022-09-20T06:34:05.579Z,14.79
2022-09-20T06:36:56.408Z,14.76
2022-09-20T06:39:56.749Z,14.86
2022-09-20T06:42:27.053Z,14.74
2022-09-20T06:44:54.135Z,14.73
2022-09-20T06:47:21.803Z,14.73
2022-09-20T06:49:49.982Z,14.74
2022-09-20T06:52:21.988Z,14.78
2022-09-20T06:54:51.862Z,14.76
2022-09-20T06:57:23.493Z,14.77
2022-09-20T06:59:49.987Z,14.75
2022-09-20T07:02:16.570Z,14.75
2022-09-20T07:04:43.666Z,15.07
2022-09-20T07:07:16.596Z,14.87
2022-09-20T07:09:43.037Z,14.77
2022-09-20T07:12:12.437Z,14.78
2022-09-20T07:14:39.369Z,14.75
2022-09-20T07:17:06.596Z,14.76
2022-09-20T07:19:33.918Z,14.76
2022-09-20T07:22:00.376Z,14.76
2022-09-20T07:24:26.782Z,14.78
2022-09-20T07:26:58.607Z,14.84
2022-09-20T07:29:25.757Z,14.81
2022-09-20T07:31:53.085Z,14.83
2022-09-20T07:34:20.345Z,14.83
2022-09-20T07:36:51.298Z,14.90
2022-09-20T07:39:18.547Z,14.88
2022-09-20T07:41:48.598Z,14.91
2022-09-20T07:44:22.172Z,14.94
2022-09-20T07:46:49.827Z,14.98
2022-09-20T07:49:16.470Z,15.00
2022-09-20T07:51:42.895Z,15.35
2022-09-20T07:54:09.447Z,15.19
2022-09-20T07:56:36.234Z,15.24
2022-09-20T07:59:02.706Z,15.29
2022-09-20T08:01:29.522Z,15.36
2022-09-20T08:03:57.421Z,15.40
2022-09-20T08:06:24.134Z,15.44
2022-09-20T08:08:51.673Z,15.49
2022-09-20T08:11:21.748Z,15.54
2022-09-20T08:14:07.132Z,15.59
2022-09-20T08:16:39.780Z,15.67
2022-09-20T08:19:06.406Z,15.67
2022-09-20T08:21:33.930Z,15.97
2022-09-20T08:24:01.017Z,15.77
2022-09-20T08:26:31.108Z,15.77
2022-09-20T08:28:59.280Z,15.78
2022-09-20T08:31:31.491Z,15.78
2022-09-20T08:33:59.066Z,15.78
2022-09-20T08:36:26.509Z,15.78
2022-09-20T08:41:51.329Z,15.93
2022-09-20T08:44:35.498Z,15.90
2022-09-20T08:47:16.038Z,15.91
2022-09-20T08:49:46.103Z,15.88
2022-09-20T08:52:19.347Z,15.94
2022-09-20T08:54:45.954Z,15.90
2022-09-20T08:57:17.231Z,16.23
2022-09-20T08:59:44.629Z,15.97
2022-09-20T09:02:20.460Z,16.04
2022-09-20T09:04:48.775Z,16.01
2022-09-20T09:07:20.961Z,16.07
2022-09-20T09:09:50.032Z,16.12
2022-09-20T09:12:24.949Z,16.25
2022-09-20T09:14:57.296Z,16.33
2022-09-20T09:17:29.148Z,16.52
2022-09-20T09:20:07.204Z,16.71
2022-09-20T09:22:42.705Z,16.93
2022-09-20T09:25:14.885Z,17.17
2022-09-20T09:28:01.366Z,17.44
2022-09-20T09:30:36.229Z,17.59
2022-09-20T09:33:21.059Z,17.87
2022-09-20T09:35:55.676Z,17.97
2022-09-20T09:38:26.002Z,18.06
2022-09-20T09:41:05.278Z,18.13
2022-09-20T09:43:35.526Z,18.09
2022-09-20T09:46:24.152Z,18.21
2022-09-20T09:49:18.474Z,18.24
2022-09-20T09:52:06.456Z,18.21
2022-09-20T09:54:37.430Z,18.11
2022-09-20T09:57:20.657Z,18.23
2022-09-20T10:00:22.015Z,18.33
2022-09-20T10:03:13.036Z,18.44
2022-09-20T10:06:11.362Z,18.50
2022-09-20T10:08:59.529Z,18.56
2022-09-20T10:11:58.601Z,18.64
2022-09-20T10:14:38.379Z,18.67
2022-09-20T10:17:16.699Z,18.74
2022-09-20T10:20:01.952Z,18.82
2022-09-20T10:22:40.651Z,18.91
2022-09-20T10:25:19.896Z,19.00
2022-09-20T10:28:30.607Z,19.10
2022-09-20T10:31:28.866Z,19.16
2022-09-20T10:34:02.307Z,19.20
2022-09-20T10:36:58.057Z,19.32
2022-09-20T10:39:36.401Z,19.33
2022-09-20T10:42:27.575Z,19.31
2022-09-20T10:45:34.925Z,19.42
2022-09-20T10:48:13.144Z,19.47
2022-09-20T10:50:48.878Z,19.48
2022-09-20T10:53:49.183Z,19.58
2022-09-20T10:56:29.188Z,19.58
2022-09-20T10:59:23.324Z,19.63
2022-09-20T11:02:08.155Z,19.54
2022-09-20T11:04:45.960Z,19.48
2022-09-20T11:07:33.921Z,19.61
2022-09-20T11:10:31.175Z,19.64
2022-09-20T11:13:16.468Z,19.66
2022-09-20T11:16:26.289Z,19.64
2022-09-20T11:19:23.504Z,19.82
2022-09-20T11:22:17.367Z,19.86
2022-09-20T11:24:48.032Z,19.94
2022-09-20T11:27:20.821Z,20.11
2022-09-20T11:30:04.983Z,20.33
2022-09-20T11:32:42.405Z,20.47
2022-09-20T11:35:11.812Z,20.62
2022-09-20T11:37:45.437Z,20.78
2022-09-20T11:40:14.741Z,20.94
2022-09-20T11:42:42.160Z,21.06
2022-09-20T11:45:12.536Z,21.23
2022-09-20T11:47:55.374Z,21.36
2022-09-20T11:50:56.617Z,21.55
2022-09-20T11:53:52.917Z,21.78
2022-09-20T11:56:20.927Z,21.97
2022-09-20T11:58:49.981Z,22.15
2022-09-20T12:01:28.561Z,22.31
2022-09-20T12:04:28.279Z,22.38
2022-09-20T12:07:08.888Z,22.45
2022-09-20T12:09:40.389Z,22.38
2022-09-20T12:12:32.235Z,22.50
2022-09-20T12:15:02.198Z,22.45
2022-09-20T12:17:47.124Z,22.56
2022-09-20T16:31:42.292Z,20.72
2022-09-20T16:34:19.261Z,20.60
2022-09-20T16:36:47.276Z,20.49
2022-09-20T16:39:14.746Z,20.44
2022-09-20T16:41:41.859Z,20.39
2022-09-20T16:44:08.866Z,20.36
2022-09-20T16:46:38.694Z,20.30
2022-09-20T16:49:09.198Z,20.26
2022-09-20T16:51:37.667Z,20.17
2022-09-20T16:54:12.350Z,20.14
2022-09-20T16:56:41.402Z,20.01
2022-09-20T16:59:08.207Z,19.91
2022-09-20T17:01:36.966Z,19.81
2022-09-20T17:04:08.350Z,19.74
2022-09-20T17:06:37.116Z,19.65
2022-09-20T17:09:05.059Z,19.55
2022-09-20T17:11:37.245Z,19.50
2022-09-20T17:14:05.248Z,19.38
2022-09-20T17:16:37.086Z,19.36
2022-09-20T17:19:09.428Z,19.25
2022-09-20T17:21:38.369Z,19.15
2022-09-20T17:24:07.147Z,19.07
2022-09-20T17:26:40.297Z,19.06
2022-09-20T17:29:09.993Z,18.94
2022-09-20T17:31:39.661Z,18.88
2022-09-20T17:34:09.581Z,18.79
2022-09-20T17:36:44.427Z,18.79
2022-09-20T17:39:12.996Z,18.65
2022-09-20T17:41:41.256Z,18.60
2022-09-20T17:44:09.969Z,18.53
2022-09-20T17:46:38.528Z,18.49
2022-09-20T17:49:07.644Z,18.45
2022-09-20T17:51:37.115Z,18.40
2022-09-20T17:54:04.324Z,18.35
2022-09-20T17:56:31.323Z,18.31
2022-09-20T17:58:59.274Z,18.26
2022-09-20T18:01:27.355Z,18.22
2022-09-20T18:03:56.277Z,18.18
2022-09-20T18:06:31.836Z,18.23
2022-09-20T18:09:06.800Z,18.19
2022-09-20T18:11:41.989Z,18.15
2022-09-20T18:14:13.490Z,18.03
2022-09-20T18:16:40.428Z,17.97
2022-09-20T18:19:08.474Z,17.94
2022-09-20T18:21:36.462Z,17.87
2022-09-20T18:24:07.125Z,17.87
2022-09-20T18:26:34.790Z,17.76
2022-09-20T18:29:02.908Z,17.73
2022-09-20T18:31:36.162Z,17.69
2022-09-20T18:34:07.724Z,17.67
2022-09-20T18:36:37.301Z,17.58
2022-09-20T18:39:04.005Z,17.50
2022-09-20T18:41:33.457Z,17.47
2022-09-20T18:44:02.049Z,17.43
2022-09-20T18:46:30.879Z,17.37
2022-09-20T18:49:04.959Z,17.38
2022-09-20T18:51:35.853Z,17.27
2022-09-20T18:54:05.871Z,17.23
2022-09-20T18:56:34.757Z,17.21
2022-09-20T18:59:04.294Z,17.17
2022-09-20T19:02:01.098Z,17.22
2022-09-20T19:04:36.249Z,17.07
2022-09-20T19:07:21.108Z,17.02
2022-09-20T19:10:26.200Z,17.14
2022-09-20T19:12:55.370Z,16.90
2022-09-20T19:15:47.123Z,17.00
2022-09-20T19:18:24.195Z,16.88
2022-09-20T19:21:07.367Z,16.84
2022-09-20T19:24:02.383Z,16.77
2022-09-20T19:26:31.739Z,16.63
2022-09-20T19:29:00.174Z,16.58
2022-09-20T19:31:32.553Z,16.53
2022-09-20T19:34:03.064Z,16.47
2022-09-20T19:36:39.739Z,16.47
2022-09-20T19:39:32.515Z,16.56
2022-09-20T19:42:20.562Z,16.39
2022-09-20T19:45:01.316Z,16.31
2022-09-20T19:47:48.589Z,16.27
2022-09-20T19:50:52.577Z,16.30
2022-09-20T19:53:22.378Z,16.09
2022-09-20T19:55:55.283Z,16.07
2022-09-20T19:58:22.872Z,15.94
2022-09-20T20:00:49.723Z,15.88
2022-09-20T20:03:16.988Z,15.81
2022-09-20T20:06:07.880Z,15.88
2022-09-20T20:08:40.579Z,15.78
2022-09-20T20:11:13.531Z,15.72
2022-09-20T20:14:04.146Z,15.73
2022-09-20T20:16:43.416Z,15.61
2022-09-20T20:19:36.151Z,15.68
2022-09-20T20:22:24.271Z,15.60
2022-09-20T20:24:52.155Z,15.44
2022-09-20T20:27:19.899Z,15.36
2022-09-20T20:29:46.612Z,15.33
2022-09-20T20:32:13.327Z,15.27
2022-09-20T20:34:39.862Z,15.61
2022-09-20T20:37:07.302Z,15.20
2022-09-20T20:39:34.458Z,15.12
2022-09-20T20:42:02.858Z,15.05
2022-09-20T20:44:35.671Z,15.06
2022-09-20T20:47:03.472Z,14.94
2022-09-20T20:49:30.257Z,14.90
2022-09-20T20:51:57.469Z,14.85
2022-09-20T20:54:24.549Z,14.80
2022-09-20T20:56:51.022Z,14.75
2022-09-20T20:59:18.160Z,14.73
2022-09-20T21:01:47.454Z,14.68
2022-09-20T21:04:15.709Z,14.67
2022-09-20T21:06:42.338Z,14.69
2022-09-20T21:09:09.801Z,15.07
2022-09-20T21:11:44.478Z,14.89
2022-09-20T21:14:12.856Z,14.92
2022-09-20T21:16:45.528Z,15.02
2022-09-20T21:19:18.179Z,15.09
2022-09-20T21:21:47.820Z,15.18
2022-09-20T21:24:17.281Z,15.23
2022-09-20T21:26:44.519Z,15.29
2022-09-20T21:29:12.459Z,15.36
2022-09-20T21:31:41.406Z,15.40
2022-09-20T21:34:10.314Z,15.43
2022-09-20T21:36:38.161Z,15.47
2022-09-20T21:39:05.631Z,15.51
2022-09-20T21:41:34.336Z,15.54
2022-09-20T21:44:02.801Z,15.56
2022-09-20T21:46:32.629Z,15.60
2022-09-20T21:49:01.424Z,15.60
2022-09-20T21:51:31.107Z,15.62
2022-09-20T21:53:59.679Z,15.63
2022-09-20T21:56:28.342Z,15.66
2022-09-20T21:58:55.356Z,15.67
2022-09-20T22:01:24.790Z,15.69
2022-09-20T22:03:54.885Z,15.71
2022-09-20T22:06:23.259Z,15.71
2022-09-20T22:09:01.198Z,15.73
2022-09-20T22:11:31.086Z,15.70
2022-09-20T22:13:58.039Z,15.68
2022-09-20T22:16:28.962Z,15.64
2022-09-20T22:18:56.195Z,15.57
2022-09-20T22:21:28.354Z,15.58
2022-09-20T22:23:57.646Z,15.49
2022-09-20T22:26:26.498Z,15.46
2022-09-20T22:28:52.996Z,15.45
2022-09-20T22:31:22.760Z,15.48
2022-09-20T22:33:52.191Z,15.46
2022-09-20T22:36:25.741Z,15.51
2022-09-20T22:38:53.415Z,15.45
2022-09-20T22:41:20.824Z,15.43
2022-09-20T22:43:47.675Z,15.42
2022-09-20T22:46:16.567Z,15.41
2022-09-20T22:48:43.814Z,15.38
2022-09-20T22:51:28.610Z,15.50
2022-09-20T22:53:55.248Z,15.39
2022-09-20T22:56:24.092Z,15.71
2022-09-20T22:58:53.016Z,15.42
2022-09-20T23:01:25.447Z,15.38
2022-09-20T23:03:57.879Z,15.40
2022-09-20T23:06:40.324Z,15.37
2022-09-20T23:09:10.102Z,15.34
2022-09-20T23:11:37.624Z,15.31
2022-09-20T23:14:06.042Z,15.31
2022-09-20T23:16:35.771Z,15.33
2022-09-20T23:19:03.785Z,15.32
2022-09-20T23:21:31.207Z,15.31
2022-09-20T23:23:59.865Z,15.34
2022-09-20T23:26:28.088Z,15.33
2022-09-20T23:29:00.234Z,15.34
2022-09-20T23:31:28.076Z,15.30
2022-09-20T23:34:00.138Z,15.32
2022-09-20T23:36:29.204Z,15.26
2022-09-20T23:38:56.949Z,15.22
2022-09-20T23:41:26.203Z,15.20
2022-09-20T23:43:52.734Z,15.15
2022-09-20T23:46:21.104Z,15.13
2022-09-20T23:48:48.084Z,15.07
2022-09-20T23:51:16.577Z,15.04
2022-09-20T23:53:43.788Z,15.01
2022-09-20T23:56:12.213Z,14.99
2022-09-20T23:58:41.313Z,14.97
